Waskaganish Airport
CYKQ : now visible

Airfield :











YOU CAN JOIN US ON...

 
LOGIN :

Register | Disclaimer

   EN    FR    IT 

 









Legend :    VFR   Marginal VFR   IFR   Intensive IFR   Very Intensive IFR
Visi :
Ceiling :
>= 8 km
>= 3000ft
5 to 8 km
1000 to 3000 ft
1500m to 5 km
500 to 1000 ft
800 to 1500m
200 to 500 ft
< 800m
< 200 ft
Symbols :   Thunderstorms  Fog  Heavy snow  Heavy precipitations  Wind > 20 kt






- Airport Elevation : 80 ft
- IATA code : YKQ


CYKQ - Waskaganish

CURRENT METAR :
  • 031400Z 32010KT 310V020 15SM FEW009 BKN038TCU BKN060 14/09 A3004 RMK SF1TCU5SC1 SF TR SC TR SLP174

EXPIRED METARs :
  • 031300Z 34011KT 15SM SCT009 BKN040TCU BKN060 12/10 A3003 RMK SF4TCU2SC1 SC TR SLP171

TAF TAF CYKQ
Valid from the 03 at 15:00 until the 03 at 21:00 UTC


031445Z 0315/0321 32010KT P6SM FEW009 BKN040
TEMPO 0315/0317 5SM -SHRA BR BKN009 BKN040
BECMG 0315/0317 30012KT
FM031700 30012KT P6SM BKN015
TEMPO 0317/0321 4SM BR BKN009 OVC015 RMK NXT FCST WILL BE ISSUED AT 041445Z
CZUL FIR / North America



MET'MAP, your aeronautical weather chart ! - Copyright ORBIFLY December 2007 - Disclaimer

ORBIFLY MET'MAP TEAM :

Programming & Development : Alexandra Zaïnal
Concept & original design : Baudouin d'Aumeries
Assistance for programming : Marc-Olivier Méhu
Technical & hardware support : Manuel Goepfert

Contact : metmap@orbifly.com




SOURCES & CREDITS :

   NOAA       Earth
Advisory